createdAt,value
2022-08-23T00:01:31.533Z,3.90
2022-08-23T00:04:06.762Z,3.22
2022-08-23T00:06:35.071Z,3.75
2022-08-23T00:09:02.934Z,3.78
2022-08-23T00:11:34.814Z,3.75
2022-08-23T00:14:10.192Z,4.07
2022-08-23T00:16:38.370Z,4.10
2022-08-23T00:19:07.500Z,4.32
2022-08-23T00:21:38.532Z,4.15
2022-08-23T00:24:08.093Z,3.70
2022-08-23T00:26:58.100Z,3.83
2022-08-23T00:29:29.838Z,4.28
2022-08-23T00:31:58.558Z,4.07
2022-08-23T00:34:27.109Z,3.75
2022-08-23T00:36:54.979Z,4.20
2022-08-23T00:39:22.844Z,4.05
2022-08-23T00:41:51.819Z,4.28
2022-08-23T00:44:42.822Z,4.18
2022-08-23T00:47:31.337Z,4.00
2022-08-23T00:50:05.384Z,4.22
2022-08-23T00:52:57.815Z,4.30
2022-08-23T00:55:27.312Z,4.40
2022-08-23T00:57:55.712Z,4.05
2022-08-23T01:00:25.260Z,4.03
2022-08-23T01:02:53.533Z,4.03
2022-08-23T01:05:24.867Z,4.78
2022-08-23T01:07:55.681Z,4.82
2022-08-23T01:10:27.916Z,4.00
2022-08-23T01:13:03.160Z,4.55
2022-08-23T01:15:37.624Z,4.43
2022-08-23T01:18:13.185Z,4.70
2022-08-23T01:20:50.010Z,4.18
2022-08-23T01:23:31.627Z,4.53
2022-08-23T01:25:59.886Z,4.60
2022-08-23T01:28:28.033Z,4.35
2022-08-23T01:30:56.585Z,4.20
2022-08-23T01:33:24.814Z,4.10
2022-08-23T01:35:55.488Z,4.30
2022-08-23T01:38:37.799Z,5.15
2022-08-23T01:41:07.044Z,4.80
2022-08-23T01:43:35.207Z,4.47
2022-08-23T01:46:09.510Z,4.10
2022-08-23T01:48:37.592Z,4.43
2022-08-23T01:51:05.602Z,4.38
2022-08-23T01:53:33.230Z,4.32
2022-08-23T01:56:02.587Z,4.70
2022-08-23T01:58:32.450Z,4.10
2022-08-23T02:01:02.026Z,3.97
2022-08-23T02:03:29.830Z,4.32
2022-08-23T02:05:57.923Z,4.25
2022-08-23T02:08:43.214Z,3.80
2022-08-23T02:11:15.178Z,4.45
2022-08-23T02:13:43.257Z,4.03
2022-08-23T02:16:14.952Z,4.50
2022-08-23T02:18:42.852Z,4.18
2022-08-23T02:21:10.925Z,4.22
2022-08-23T02:23:38.783Z,4.40
2022-08-23T02:26:07.172Z,4.55
2022-08-23T02:28:36.394Z,4.80
2022-08-23T02:31:04.047Z,4.30
2022-08-23T02:33:33.608Z,4.82
2022-08-23T02:36:01.487Z,4.90
2022-08-23T02:38:29.241Z,4.13
2022-08-23T02:41:00.758Z,4.55
2022-08-23T02:43:29.099Z,4.10
2022-08-23T02:45:58.228Z,4.97
2022-08-23T02:48:26.017Z,4.80
2022-08-23T02:50:53.949Z,4.78
2022-08-23T02:53:21.573Z,4.68
2022-08-23T02:55:49.331Z,4.50
2022-08-23T02:58:17.224Z,5.03
2022-08-23T03:00:48.008Z,4.93
2022-08-23T03:03:18.127Z,3.92
2022-08-23T03:05:46.433Z,4.25
2022-08-23T03:08:14.932Z,4.55
2022-08-23T03:10:44.270Z,4.43
2022-08-23T03:13:12.696Z,4.75
2022-08-23T03:15:41.484Z,4.57
2022-08-23T03:18:11.260Z,4.43
2022-08-23T03:20:41.710Z,4.35
2022-08-23T03:23:09.994Z,4.68
2022-08-23T03:25:38.613Z,4.47
2022-08-23T03:28:07.659Z,3.88
2022-08-23T03:30:35.864Z,4.43
2022-08-23T03:33:03.504Z,4.15
2022-08-23T03:35:31.294Z,4.40
2022-08-23T03:38:00.452Z,4.53
2022-08-23T03:40:28.349Z,5.05
2022-08-23T03:42:56.083Z,4.03
2022-08-23T03:45:23.763Z,4.35
2022-08-23T03:47:52.070Z,4.45
2022-08-23T03:50:20.368Z,4.63
2022-08-23T03:52:48.159Z,5.10
2022-08-23T03:55:17.597Z,5.03
2022-08-23T03:57:45.361Z,4.88
2022-08-23T04:00:15.509Z,5.03
2022-08-23T04:02:48.347Z,5.18
2022-08-23T04:05:16.245Z,5.07
2022-08-23T04:07:43.978Z,4.93
2022-08-23T04:10:15.036Z,4.72
2022-08-23T04:12:44.411Z,4.65
2022-08-23T04:15:13.504Z,4.40
2022-08-23T04:17:42.509Z,5.35
2022-08-23T04:20:11.154Z,4.70
2022-08-23T04:22:38.923Z,4.30
2022-08-23T04:25:14.051Z,4.82
2022-08-23T04:27:56.585Z,4.40
2022-08-23T04:30:24.337Z,4.82
2022-08-23T04:32:53.422Z,4.40
2022-08-23T04:35:22.321Z,5.05
2022-08-23T04:37:50.705Z,5.47
2022-08-23T04:40:36.437Z,5.03
2022-08-23T04:43:05.486Z,5.05
2022-08-23T04:45:33.485Z,5.03
2022-08-23T04:48:01.258Z,4.55
2022-08-23T04:50:29.085Z,4.50
2022-08-23T04:52:56.668Z,4.82
2022-08-23T04:55:24.488Z,4.80
2022-08-23T04:57:52.699Z,4.80
2022-08-23T05:00:22.489Z,4.82
2022-08-23T05:02:55.546Z,5.15
2022-08-23T05:05:23.364Z,5.65
2022-08-23T05:07:51.338Z,5.72
2022-08-23T05:10:19.196Z,5.45
2022-08-23T05:12:47.377Z,5.20
2022-08-23T05:15:15.604Z,4.60
2022-08-23T05:17:44.705Z,5.00
2022-08-23T05:20:12.782Z,5.43
2022-08-23T05:22:42.484Z,4.93
2022-08-23T05:25:11.180Z,4.85
2022-08-23T05:27:39.336Z,5.18
2022-08-23T05:30:08.638Z,4.72
2022-08-23T05:32:44.629Z,5.20
2022-08-23T05:35:12.273Z,5.32
2022-08-23T05:37:39.924Z,4.90
2022-08-23T05:40:09.030Z,5.75
2022-08-23T05:42:36.795Z,5.07
2022-08-23T05:45:06.240Z,5.15
2022-08-23T05:47:34.021Z,4.82
2022-08-23T05:50:03.413Z,4.97
2022-08-23T05:52:31.130Z,4.90
2022-08-23T05:54:59.090Z,5.00
2022-08-23T05:57:27.622Z,4.75
2022-08-23T05:59:55.608Z,4.15
2022-08-23T06:02:23.448Z,5.80
2022-08-23T06:04:55.520Z,4.82
2022-08-23T06:07:26.504Z,4.20
2022-08-23T06:09:55.513Z,4.65
2022-08-23T06:12:23.609Z,4.75
2022-08-23T06:14:51.702Z,4.30
2022-08-23T06:17:20.790Z,3.85
2022-08-23T06:19:48.669Z,4.35
2022-08-23T06:22:25.712Z,4.18
2022-08-23T06:24:54.761Z,4.00
2022-08-23T06:27:23.358Z,3.63
2022-08-23T06:29:52.127Z,4.13
2022-08-23T06:32:21.056Z,3.75
2022-08-23T06:34:50.250Z,4.40
2022-08-23T06:37:25.378Z,4.00
2022-08-23T06:39:56.695Z,3.15
2022-08-23T06:42:40.467Z,3.33
2022-08-23T06:45:08.835Z,3.42
2022-08-23T06:47:40.241Z,4.20
2022-08-23T06:50:09.308Z,3.33
2022-08-23T06:52:37.028Z,3.83
2022-08-23T06:55:11.752Z,3.40
2022-08-23T06:57:41.797Z,3.50
2022-08-23T07:00:11.506Z,3.22
2022-08-23T07:02:40.439Z,3.35
2022-08-23T07:05:08.727Z,2.83
2022-08-23T07:07:41.393Z,3.35
2022-08-23T07:10:13.812Z,3.17
2022-08-23T07:12:42.612Z,2.88
2022-08-23T07:15:12.345Z,3.13
2022-08-23T07:17:40.057Z,2.92
2022-08-23T07:20:08.793Z,2.60
2022-08-23T07:22:36.666Z,2.88
2022-08-23T07:25:04.783Z,2.88
2022-08-23T07:27:33.885Z,2.47
2022-08-23T07:30:02.433Z,2.67
2022-08-23T07:32:30.335Z,2.70
2022-08-23T07:34:58.208Z,2.20
2022-08-23T07:37:26.357Z,2.42
2022-08-23T07:39:58.533Z,2.22
2022-08-23T07:42:26.487Z,2.95
2022-08-23T07:44:55.616Z,2.25
2022-08-23T07:47:25.010Z,2.75
2022-08-23T07:49:53.444Z,1.80
2022-08-23T07:52:21.090Z,2.05
2022-08-23T07:54:49.616Z,1.88
2022-08-23T07:57:17.888Z,1.80
2022-08-23T07:59:45.909Z,2.20
2022-08-23T08:02:15.633Z,1.75
2022-08-23T08:04:44.076Z,1.70
2022-08-23T08:07:19.447Z,4.68
2022-08-23T08:09:54.197Z,1.65
2022-08-23T08:12:23.284Z,1.88
2022-08-23T08:14:51.060Z,1.58
2022-08-23T08:17:23.120Z,1.50
2022-08-23T08:19:54.595Z,1.35
2022-08-23T08:22:22.268Z,1.60
2022-08-23T08:24:49.958Z,1.60
2022-08-23T08:27:17.943Z,1.42
2022-08-23T08:29:46.888Z,1.42
2022-08-23T08:32:15.795Z,1.63
2022-08-23T08:34:45.099Z,1.55
2022-08-23T08:37:14.119Z,1.70
2022-08-23T08:39:45.725Z,1.58
2022-08-23T08:42:38.905Z,1.77
2022-08-23T08:45:11.595Z,2.10
2022-08-23T08:47:46.683Z,2.00
2022-08-23T08:50:24.126Z,2.67
2022-08-23T08:52:56.301Z,2.20
2022-08-23T08:55:28.396Z,1.83
2022-08-23T08:57:56.467Z,2.08
2022-08-23T09:00:26.561Z,1.77
2022-08-23T09:02:55.504Z,1.90
2022-08-23T09:05:31.427Z,2.03
2022-08-23T09:08:11.557Z,1.42
2022-08-23T09:11:04.501Z,1.70
2022-08-23T09:13:46.294Z,1.73
2022-08-23T09:16:29.545Z,1.35
2022-08-23T09:18:57.925Z,1.30
2022-08-23T09:21:28.464Z,1.42
2022-08-23T09:24:00.404Z,1.40
2022-08-23T09:26:32.232Z,1.20
2022-08-23T09:29:04.537Z,1.20
2022-08-23T09:31:41.387Z,1.75
2022-08-23T09:34:10.054Z,1.13
2022-08-23T09:36:39.984Z,1.35
2022-08-23T09:39:24.407Z,1.63
2022-08-23T09:41:59.874Z,1.85
2022-08-23T09:44:42.648Z,1.20
2022-08-23T09:47:15.382Z,1.40
2022-08-23T09:49:44.304Z,1.40
2022-08-23T09:52:22.741Z,1.50
2022-08-23T09:54:59.362Z,1.60
2022-08-23T09:57:29.626Z,1.00
2022-08-23T10:00:03.251Z,1.38
2022-08-23T10:02:34.653Z,1.20
2022-08-23T10:05:05.426Z,1.27
2022-08-23T10:07:42.854Z,1.17
2022-08-23T10:10:23.637Z,1.40
2022-08-23T10:12:52.078Z,1.13
2022-08-23T10:15:20.774Z,1.20
2022-08-23T10:17:59.068Z,1.30
2022-08-23T10:20:36.787Z,1.30
2022-08-23T10:23:19.658Z,1.40
2022-08-23T10:25:54.892Z,1.17
2022-08-23T10:28:51.634Z,1.25
2022-08-23T10:31:31.260Z,1.42
2022-08-23T10:34:14.081Z,0.95
2022-08-23T10:36:54.742Z,1.10
2022-08-23T10:39:27.882Z,1.25
2022-08-23T10:42:02.990Z,1.23
2022-08-23T10:44:36.142Z,1.17
2022-08-23T10:47:17.326Z,1.10
2022-08-23T10:49:50.110Z,1.33
2022-08-23T10:52:23.904Z,1.27
2022-08-23T10:55:01.029Z,1.10
2022-08-23T10:57:36.534Z,1.02
2022-08-23T11:00:07.591Z,1.23
2022-08-23T11:02:44.968Z,1.30
2022-08-23T11:05:21.130Z,0.93
2022-08-23T11:08:00.134Z,1.10
2022-08-23T11:10:56.499Z,1.40
2022-08-23T11:13:27.863Z,1.60
2022-08-23T11:16:01.153Z,1.30
2022-08-23T11:18:46.460Z,1.10
2022-08-23T11:21:45.662Z,1.10
2022-08-23T11:24:34.007Z,1.08
2022-08-23T11:27:07.635Z,1.10
2022-08-23T11:29:38.607Z,1.10
2022-08-23T11:32:30.000Z,1.25
2022-08-23T11:35:05.553Z,1.23
2022-08-23T11:37:57.144Z,0.80
2022-08-23T11:40:59.851Z,1.08
2022-08-23T11:43:34.507Z,1.00
2022-08-23T11:46:36.178Z,0.73
2022-08-23T11:49:28.585Z,0.82
2022-08-23T11:52:10.857Z,0.88
2022-08-23T11:55:01.823Z,1.15
2022-08-23T11:57:45.619Z,1.23
2022-08-23T12:00:28.542Z,1.52
2022-08-23T12:03:05.702Z,1.02
2022-08-23T12:06:09.883Z,1.08
2022-08-23T12:08:51.218Z,1.05
2022-08-23T12:11:20.898Z,1.33
2022-08-23T12:14:02.106Z,1.10
2022-08-23T12:16:37.910Z,1.50
2022-08-23T12:19:20.371Z,1.17
2022-08-23T12:21:55.706Z,0.82
2022-08-23T12:24:27.418Z,1.38
2022-08-23T12:27:22.614Z,0.90
2022-08-23T12:29:58.852Z,1.08
2022-08-23T12:32:38.230Z,1.05
2022-08-23T12:35:21.722Z,1.00
2022-08-23T12:37:59.730Z,1.10
2022-08-23T12:40:33.612Z,0.98
2022-08-23T12:43:09.818Z,1.02
2022-08-23T12:45:42.603Z,1.20
2022-08-23T12:48:17.086Z,0.93
2022-08-23T12:50:47.004Z,1.20
2022-08-23T12:53:18.122Z,0.93
2022-08-23T12:55:49.146Z,1.05
2022-08-23T12:58:18.439Z,1.00
2022-08-23T13:00:53.749Z,1.00
2022-08-23T13:03:25.771Z,1.10
2022-08-23T13:05:58.069Z,0.90
2022-08-23T13:08:39.626Z,1.10
2022-08-23T13:11:09.698Z,0.85
2022-08-23T13:13:39.810Z,0.90
2022-08-23T13:16:28.181Z,1.08
2022-08-23T13:18:57.077Z,0.88
2022-08-23T13:21:32.332Z,0.90
2022-08-23T13:24:38.514Z,1.38
2022-08-23T13:27:16.256Z,0.93
2022-08-23T13:29:51.622Z,0.90
2022-08-23T13:32:29.197Z,1.13
2022-08-23T13:35:28.649Z,1.00
2022-08-23T13:38:04.873Z,1.10
2022-08-23T13:40:42.746Z,1.00
2022-08-23T13:43:14.892Z,0.70
2022-08-23T13:45:48.220Z,1.13
2022-08-23T13:48:20.903Z,0.90
2022-08-23T13:50:48.917Z,0.98
2022-08-23T13:53:18.752Z,1.10
2022-08-23T13:55:52.033Z,0.85
2022-08-23T13:58:30.965Z,1.10
2022-08-23T14:01:00.981Z,1.05
2022-08-23T14:03:31.326Z,1.02
2022-08-23T14:05:59.129Z,1.25
2022-08-23T14:08:27.098Z,0.95
2022-08-23T14:10:56.927Z,0.93
2022-08-23T14:13:28.752Z,1.05
2022-08-23T14:21:38.721Z,1.30
2022-08-23T14:24:07.938Z,1.00
2022-08-23T14:26:37.956Z,0.93
2022-08-23T14:29:22.319Z,1.02
2022-08-23T14:31:51.817Z,1.00
2022-08-23T14:34:22.576Z,0.75
2022-08-23T14:39:42.947Z,0.90
2022-08-23T14:42:14.182Z,0.93
2022-08-23T14:44:42.369Z,1.15
2022-08-23T14:47:10.057Z,1.00
2022-08-23T14:49:38.589Z,1.10
2022-08-23T14:52:06.916Z,1.13
2022-08-23T14:54:35.194Z,1.10
2022-08-23T14:57:02.895Z,0.80
2022-08-23T14:59:32.105Z,0.93
2022-08-23T15:02:00.869Z,1.00
2022-08-23T15:04:34.444Z,0.80
2022-08-23T15:07:19.562Z,1.25
2022-08-23T15:09:48.117Z,0.80
2022-08-23T15:15:09.066Z,1.00
2022-08-23T15:17:45.916Z,0.80
2022-08-23T15:20:13.941Z,0.75
2022-08-23T15:22:45.011Z,0.60
2022-08-23T15:25:17.029Z,0.60
2022-08-23T15:27:46.987Z,0.90
2022-08-23T15:30:22.197Z,0.95
2022-08-23T15:32:52.746Z,1.02
2022-08-23T15:35:25.980Z,0.65
2022-08-23T15:37:57.514Z,0.98
2022-08-23T15:40:26.055Z,1.38
2022-08-23T15:42:54.573Z,0.80
2022-08-23T15:45:25.387Z,1.13
2022-08-23T15:47:56.625Z,1.20
2022-08-23T15:50:27.830Z,1.00
2022-08-23T15:52:55.788Z,1.20
2022-08-23T15:55:23.836Z,1.00
2022-08-23T15:57:53.868Z,0.85
2022-08-23T16:00:25.573Z,0.88
2022-08-23T16:03:18.953Z,0.93
2022-08-23T16:05:45.275Z,1.23
2022-08-23T16:08:18.764Z,0.88
2022-08-23T16:10:46.780Z,0.90
2022-08-23T16:13:14.365Z,1.10
2022-08-23T16:15:43.405Z,1.10
2022-08-23T16:18:11.709Z,1.00
2022-08-23T16:20:39.471Z,0.93
2022-08-23T16:23:07.779Z,1.02
2022-08-23T16:25:35.849Z,0.93
2022-08-23T16:28:04.691Z,0.90
2022-08-23T16:30:32.414Z,1.05
2022-08-23T16:33:02.152Z,1.10
2022-08-23T16:35:30.089Z,1.00
2022-08-23T16:37:57.798Z,1.08
2022-08-23T16:40:25.667Z,1.10
2022-08-23T16:42:53.446Z,0.98
2022-08-23T16:45:25.780Z,1.10
2022-08-23T16:47:54.739Z,0.95
2022-08-23T16:50:23.972Z,1.02
2022-08-23T16:52:51.855Z,1.25
2022-08-23T16:55:20.068Z,0.95
2022-08-23T16:57:47.952Z,0.90
2022-08-23T17:00:18.552Z,1.13
2022-08-23T17:02:46.341Z,1.25
2022-08-23T17:05:17.044Z,1.20
2022-08-23T17:07:47.688Z,1.27
2022-08-23T17:10:17.958Z,0.85
2022-08-23T17:12:47.724Z,1.40
2022-08-23T17:15:20.395Z,1.05
2022-08-23T17:17:48.758Z,1.17
2022-08-23T17:20:18.349Z,1.10
2022-08-23T17:22:48.090Z,0.98
2022-08-23T17:25:16.813Z,0.80
2022-08-23T17:27:46.493Z,1.00
2022-08-23T17:30:17.138Z,0.98
2022-08-23T17:32:47.508Z,0.88
2022-08-23T17:35:17.468Z,1.45
2022-08-23T17:37:45.171Z,0.93
2022-08-23T17:40:21.681Z,0.82
2022-08-23T17:42:49.942Z,1.10
2022-08-23T17:45:18.789Z,1.23
2022-08-23T17:47:46.499Z,1.63
2022-08-23T17:50:14.740Z,1.13
2022-08-23T17:52:42.455Z,1.55
2022-08-23T17:55:10.897Z,1.40
2022-08-23T17:57:40.745Z,0.90
2022-08-23T18:00:09.486Z,1.00
2022-08-23T18:02:37.634Z,1.02
2022-08-23T18:05:06.289Z,1.00
2022-08-23T18:07:33.960Z,1.23
2022-08-23T18:10:01.739Z,1.17
2022-08-23T18:12:29.349Z,0.88
2022-08-23T18:14:58.397Z,1.27
2022-08-23T18:17:25.986Z,1.15
2022-08-23T18:19:53.754Z,1.05
2022-08-23T18:22:21.305Z,1.25
2022-08-23T18:24:48.914Z,1.17
2022-08-23T18:27:34.074Z,1.30
2022-08-23T18:30:03.170Z,1.10
2022-08-23T18:32:30.856Z,1.17
2022-08-23T18:34:58.443Z,0.98
2022-08-23T18:37:26.226Z,1.25
2022-08-23T18:39:54.002Z,1.20
2022-08-23T18:42:21.887Z,1.95
2022-08-23T18:44:49.682Z,1.35
2022-08-23T18:47:18.838Z,1.40
2022-08-23T18:49:46.472Z,1.60
2022-08-23T18:52:14.239Z,1.77
2022-08-23T18:54:41.922Z,1.10
2022-08-23T18:57:15.886Z,1.30
2022-08-23T18:59:44.353Z,1.20
2022-08-23T19:02:12.159Z,1.90
2022-08-23T19:04:42.594Z,1.48
2022-08-23T19:07:10.740Z,1.38
2022-08-23T19:09:38.918Z,1.33
2022-08-23T19:12:07.846Z,1.40
2022-08-23T19:14:36.339Z,1.63
2022-08-23T19:17:04.569Z,1.42
2022-08-23T19:19:34.091Z,1.40
2022-08-23T19:22:03.474Z,1.52
2022-08-23T19:24:31.741Z,1.67
2022-08-23T19:26:59.593Z,1.30
2022-08-23T19:29:27.301Z,1.42
2022-08-23T19:31:55.058Z,1.50
2022-08-23T19:34:23.172Z,1.48
2022-08-23T19:37:00.646Z,1.42
2022-08-23T19:39:30.979Z,1.40
2022-08-23T19:41:58.907Z,1.65
2022-08-23T19:44:26.629Z,1.58
2022-08-23T19:46:55.837Z,1.50
2022-08-23T19:49:23.963Z,1.75
2022-08-23T19:51:51.733Z,1.23
2022-08-23T19:54:19.616Z,1.55
2022-08-23T19:56:51.649Z,1.50
2022-08-23T19:59:23.729Z,2.58
2022-08-23T20:01:52.262Z,1.83
2022-08-23T20:04:21.029Z,1.63
2022-08-23T20:06:50.465Z,1.80
2022-08-23T20:09:20.737Z,1.40
2022-08-23T20:11:53.401Z,1.48
2022-08-23T20:14:22.035Z,1.60
2022-08-23T20:16:50.664Z,1.70
2022-08-23T20:19:18.487Z,1.70
2022-08-23T20:21:46.298Z,1.80
2022-08-23T20:24:15.437Z,1.95
2022-08-23T20:26:45.167Z,1.70
2022-08-23T20:29:17.161Z,1.60
2022-08-23T20:31:49.773Z,1.92
2022-08-23T20:34:17.450Z,1.75
2022-08-23T20:36:45.640Z,2.05
2022-08-23T20:39:13.829Z,2.03
2022-08-23T20:41:42.127Z,2.35
2022-08-23T20:44:09.896Z,2.03
2022-08-23T20:46:39.745Z,2.28
2022-08-23T20:49:08.952Z,2.50
2022-08-23T20:51:37.018Z,2.25
2022-08-23T20:54:05.109Z,2.70
2022-08-23T20:56:33.198Z,2.15
2022-08-23T20:59:01.126Z,2.35
2022-08-23T21:01:28.882Z,2.42
2022-08-23T21:03:58.112Z,2.20
2022-08-23T21:06:28.015Z,1.73
2022-08-23T21:08:58.837Z,1.88
2022-08-23T21:11:29.806Z,1.95
2022-08-23T21:13:58.779Z,2.53
2022-08-23T21:16:27.344Z,2.63
2022-08-23T21:18:56.898Z,2.40
2022-08-23T21:21:27.150Z,2.20
2022-08-23T21:23:55.329Z,2.00
2022-08-23T21:26:23.661Z,2.03
2022-08-23T21:28:52.719Z,2.20
2022-08-23T21:31:22.542Z,2.20
2022-08-23T21:33:50.422Z,2.17
2022-08-23T21:36:19.611Z,2.70
2022-08-23T21:38:48.701Z,2.20
2022-08-23T21:41:33.586Z,2.58
2022-08-23T21:44:01.519Z,2.30
2022-08-23T21:46:29.280Z,2.58
2022-08-23T21:48:57.150Z,2.58
2022-08-23T21:51:25.379Z,2.20
2022-08-23T21:53:54.562Z,2.50
2022-08-23T21:56:22.525Z,2.15
2022-08-23T21:58:54.602Z,2.65
2022-08-23T22:01:22.421Z,2.20
2022-08-23T22:03:54.856Z,3.10
2022-08-23T22:06:24.933Z,2.60
2022-08-23T22:08:54.278Z,2.88
2022-08-23T22:11:24.063Z,3.45
2022-08-23T22:13:53.878Z,2.65
2022-08-23T22:16:21.859Z,2.63
2022-08-23T22:18:49.648Z,2.72
2022-08-23T22:21:17.453Z,2.50
2022-08-23T22:23:45.130Z,2.70
2022-08-23T22:26:15.146Z,2.70
2022-08-23T22:28:45.022Z,2.67
2022-08-23T22:31:14.956Z,2.90
2022-08-23T22:33:45.002Z,3.08
2022-08-23T22:36:15.105Z,3.03
2022-08-23T22:38:42.810Z,2.88
2022-08-23T22:41:11.167Z,3.10
2022-08-23T22:43:40.138Z,2.97
2022-08-23T22:46:07.966Z,2.60
2022-08-23T22:48:36.056Z,3.03
2022-08-23T22:51:06.597Z,2.65
2022-08-23T22:53:34.773Z,3.42
2022-08-23T22:56:02.707Z,2.85
2022-08-23T22:58:30.581Z,3.38
2022-08-23T23:00:59.827Z,2.78
2022-08-23T23:03:31.968Z,3.17
2022-08-23T23:05:59.803Z,3.05
2022-08-23T23:08:30.379Z,3.17
2022-08-23T23:10:59.703Z,3.03
2022-08-23T23:13:29.333Z,3.45
2022-08-23T23:15:59.547Z,3.13
2022-08-23T23:18:27.686Z,3.33
2022-08-23T23:20:58.517Z,3.72
2022-08-23T23:23:26.795Z,3.42
2022-08-23T23:25:54.442Z,3.40
2022-08-23T23:28:22.935Z,3.75
2022-08-23T23:30:52.600Z,3.63
2022-08-23T23:33:22.699Z,4.05
2022-08-23T23:35:51.646Z,3.67
2022-08-23T23:38:19.357Z,3.50
2022-08-23T23:40:47.101Z,4.32
2022-08-23T23:43:14.806Z,4.20
2022-08-23T23:45:42.629Z,4.18
2022-08-23T23:48:11.271Z,4.28
2022-08-23T23:50:46.623Z,4.07
2022-08-23T23:53:14.830Z,4.40
2022-08-23T23:55:43.188Z,4.75
2022-08-23T23:58:11.075Z,5.15
